sensor_id;sensor_type;location;lat;lon;timestamp;temperature;humidity
8939;DHT22;4504;48.810;9.172;2023-04-22T00:01:48;13.10;99.90
8939;DHT22;4504;48.810;9.172;2023-04-22T00:04:15;13.20;99.90
8939;DHT22;4504;48.810;9.172;2023-04-22T00:06:42;13.10;99.90
8939;DHT22;4504;48.810;9.172;2023-04-22T00:09:10;13.10;99.90
8939;DHT22;4504;48.810;9.172;2023-04-22T00:11:37;13.10;99.90
8939;DHT22;4504;48.810;9.172;2023-04-22T00:14:04;13.10;99.90
8939;DHT22;4504;48.810;9.172;2023-04-22T00:16:32;13.10;99.90
8939;DHT22;4504;48.810;9.172;2023-04-22T00:18:59;13.20;99.90
8939;DHT22;4504;48.810;9.172;2023-04-22T00:21:26;13.20;99.90
8939;DHT22;4504;48.810;9.172;2023-04-22T00:23:53;13.10;99.90
8939;DHT22;4504;48.810;9.172;2023-04-22T00:26:20;13.20;99.90
8939;DHT22;4504;48.810;9.172;2023-04-22T00:28:48;13.20;99.90
8939;DHT22;4504;48.810;9.172;2023-04-22T00:31:15;13.30;99.90
8939;DHT22;4504;48.810;9.172;2023-04-22T00:33:44;13.20;99.90
8939;DHT22;4504;48.810;9.172;2023-04-22T00:36:11;13.10;99.90
8939;DHT22;4504;48.810;9.172;2023-04-22T00:38:38;13.10;99.90
8939;DHT22;4504;48.810;9.172;2023-04-22T00:41:05;13.10;99.90
8939;DHT22;4504;48.810;9.172;2023-04-22T00:43:32;13.20;99.90
8939;DHT22;4504;48.810;9.172;2023-04-22T00:46:00;13.20;99.90
8939;DHT22;4504;48.810;9.172;2023-04-22T00:48:27;13.30;99.90
8939;DHT22;4504;48.810;9.172;2023-04-22T00:50:56;13.30;99.90
8939;DHT22;4504;48.810;9.172;2023-04-22T00:53:23;13.20;99.90
8939;DHT22;4504;48.810;9.172;2023-04-22T00:55:50;13.10;99.90
8939;DHT22;4504;48.810;9.172;2023-04-22T00:58:18;13.10;99.90
8939;DHT22;4504;48.810;9.172;2023-04-22T01:00:46;13.10;99.90
8939;DHT22;4504;48.810;9.172;2023-04-22T01:03:14;13.00;99.90
8939;DHT22;4504;48.810;9.172;2023-04-22T01:05:41;12.90;99.90
8939;DHT22;4504;48.810;9.172;2023-04-22T01:08:11;13.00;99.90
8939;DHT22;4504;48.810;9.172;2023-04-22T01:10:38;12.90;99.90
8939;DHT22;4504;48.810;9.172;2023-04-22T01:13:06;13.00;99.90
8939;DHT22;4504;48.810;9.172;2023-04-22T01:15:33;12.90;99.90
8939;DHT22;4504;48.810;9.172;2023-04-22T01:18:01;13.10;99.90
8939;DHT22;4504;48.810;9.172;2023-04-22T01:20:28;13.10;99.90
8939;DHT22;4504;48.810;9.172;2023-04-22T01:22:57;13.10;99.90
8939;DHT22;4504;48.810;9.172;2023-04-22T01:25:29;13.10;99.90
8939;DHT22;4504;48.810;9.172;2023-04-22T01:27:57;13.10;99.90
8939;DHT22;4504;48.810;9.172;2023-04-22T01:30:24;13.00;99.90
8939;DHT22;4504;48.810;9.172;2023-04-22T01:32:51;12.90;99.90
8939;DHT22;4504;48.810;9.172;2023-04-22T01:35:20;12.90;99.90
8939;DHT22;4504;48.810;9.172;2023-04-22T01:37:47;12.80;99.90
8939;DHT22;4504;48.810;9.172;2023-04-22T01:40:15;12.70;99.90
8939;DHT22;4504;48.810;9.172;2023-04-22T01:42:45;12.70;99.90
8939;DHT22;4504;48.810;9.172;2023-04-22T01:45:14;12.60;99.90
8939;DHT22;4504;48.810;9.172;2023-04-22T01:47:42;12.60;99.90
8939;DHT22;4504;48.810;9.172;2023-04-22T01:50:09;12.60;99.90
8939;DHT22;4504;48.810;9.172;2023-04-22T01:52:38;12.60;99.90
8939;DHT22;4504;48.810;9.172;2023-04-22T01:55:06;12.60;99.90
8939;DHT22;4504;48.810;9.172;2023-04-22T01:57:33;12.60;99.90
8939;DHT22;4504;48.810;9.172;2023-04-22T02:00:03;12.60;99.90
8939;DHT22;4504;48.810;9.172;2023-04-22T02:02:38;12.60;99.90
8939;DHT22;4504;48.810;9.172;2023-04-22T02:05:06;12.60;99.90
8939;DHT22;4504;48.810;9.172;2023-04-22T02:07:33;12.60;99.90
8939;DHT22;4504;48.810;9.172;2023-04-22T02:10:02;12.60;99.90
8939;DHT22;4504;48.810;9.172;2023-04-22T02:12:29;12.50;99.90
8939;DHT22;4504;48.810;9.172;2023-04-22T02:14:57;12.60;99.90
8939;DHT22;4504;48.810;9.172;2023-04-22T02:17:26;12.60;99.90
8939;DHT22;4504;48.810;9.172;2023-04-22T02:19:53;12.60;99.90
8939;DHT22;4504;48.810;9.172;2023-04-22T02:22:22;12.60;99.90
8939;DHT22;4504;48.810;9.172;2023-04-22T02:24:50;12.60;99.90
8939;DHT22;4504;48.810;9.172;2023-04-22T02:27:17;12.60;99.90
8939;DHT22;4504;48.810;9.172;2023-04-22T02:29:46;12.60;99.90
8939;DHT22;4504;48.810;9.172;2023-04-22T02:32:15;12.50;99.90
8939;DHT22;4504;48.810;9.172;2023-04-22T02:34:44;12.50;99.90
8939;DHT22;4504;48.810;9.172;2023-04-22T02:37:12;12.40;99.90
8939;DHT22;4504;48.810;9.172;2023-04-22T02:39:39;12.30;99.90
8939;DHT22;4504;48.810;9.172;2023-04-22T02:42:06;12.10;99.90
8939;DHT22;4504;48.810;9.172;2023-04-22T02:44:33;12.10;99.90
8939;DHT22;4504;48.810;9.172;2023-04-22T02:47:00;12.00;99.90
8939;DHT22;4504;48.810;9.172;2023-04-22T02:49:28;11.90;99.90
8939;DHT22;4504;48.810;9.172;2023-04-22T02:51:57;11.90;99.90
8939;DHT22;4504;48.810;9.172;2023-04-22T02:54:24;11.90;99.90
8939;DHT22;4504;48.810;9.172;2023-04-22T02:56:51;11.80;99.90
8939;DHT22;4504;48.810;9.172;2023-04-22T02:59:18;11.80;99.90
8939;DHT22;4504;48.810;9.172;2023-04-22T03:01:45;11.80;99.90
8939;DHT22;4504;48.810;9.172;2023-04-22T03:04:23;11.80;99.90
8939;DHT22;4504;48.810;9.172;2023-04-22T03:06:50;11.80;99.90
8939;DHT22;4504;48.810;9.172;2023-04-22T03:09:19;11.70;99.90
8939;DHT22;4504;48.810;9.172;2023-04-22T03:11:46;11.70;99.90
8939;DHT22;4504;48.810;9.172;2023-04-22T03:14:13;11.60;99.90
8939;DHT22;4504;48.810;9.172;2023-04-22T03:16:40;11.60;99.90
8939;DHT22;4504;48.810;9.172;2023-04-22T03:19:07;11.50;99.90
8939;DHT22;4504;48.810;9.172;2023-04-22T03:21:34;11.50;99.90
8939;DHT22;4504;48.810;9.172;2023-04-22T03:24:03;11.40;99.90
8939;DHT22;4504;48.810;9.172;2023-04-22T03:26:33;11.40;99.90
8939;DHT22;4504;48.810;9.172;2023-04-22T03:29:00;11.40;99.90
8939;DHT22;4504;48.810;9.172;2023-04-22T03:31:27;11.40;99.90
8939;DHT22;4504;48.810;9.172;2023-04-22T03:33:55;11.40;99.90
8939;DHT22;4504;48.810;9.172;2023-04-22T03:36:26;11.40;99.90
8939;DHT22;4504;48.810;9.172;2023-04-22T03:38:53;11.40;99.90
8939;DHT22;4504;48.810;9.172;2023-04-22T03:41:23;11.40;99.90
8939;DHT22;4504;48.810;9.172;2023-04-22T03:43:52;11.40;99.90
8939;DHT22;4504;48.810;9.172;2023-04-22T03:46:20;11.50;99.90
8939;DHT22;4504;48.810;9.172;2023-04-22T03:48:56;11.50;99.90
8939;DHT22;4504;48.810;9.172;2023-04-22T03:51:27;11.50;99.90
8939;DHT22;4504;48.810;9.172;2023-04-22T03:53:55;11.50;99.90
8939;DHT22;4504;48.810;9.172;2023-04-22T03:56:25;11.50;99.90
8939;DHT22;4504;48.810;9.172;2023-04-22T03:58:56;11.50;99.90
8939;DHT22;4504;48.810;9.172;2023-04-22T04:01:24;11.50;99.90
8939;DHT22;4504;48.810;9.172;2023-04-22T04:03:55;11.50;99.90
8939;DHT22;4504;48.810;9.172;2023-04-22T04:06:26;11.50;99.90
8939;DHT22;4504;48.810;9.172;2023-04-22T04:08:53;11.50;99.90
8939;DHT22;4504;48.810;9.172;2023-04-22T04:11:20;11.50;99.90
8939;DHT22;4504;48.810;9.172;2023-04-22T04:13:48;11.50;99.90
8939;DHT22;4504;48.810;9.172;2023-04-22T04:16:29;11.50;99.90
8939;DHT22;4504;48.810;9.172;2023-04-22T04:19:04;11.50;99.90
8939;DHT22;4504;48.810;9.172;2023-04-22T04:21:34;11.40;99.90
8939;DHT22;4504;48.810;9.172;2023-04-22T04:24:02;11.40;99.90
8939;DHT22;4504;48.810;9.172;2023-04-22T04:26:32;11.40;99.90
8939;DHT22;4504;48.810;9.172;2023-04-22T04:29:11;11.40;99.90
8939;DHT22;4504;48.810;9.172;2023-04-22T04:31:43;11.40;99.90
8939;DHT22;4504;48.810;9.172;2023-04-22T04:34:10;11.40;99.90
8939;DHT22;4504;48.810;9.172;2023-04-22T04:36:37;11.40;99.90
8939;DHT22;4504;48.810;9.172;2023-04-22T04:39:22;11.40;99.90
8939;DHT22;4504;48.810;9.172;2023-04-22T04:41:51;11.40;99.90
8939;DHT22;4504;48.810;9.172;2023-04-22T04:44:20;11.40;99.90
8939;DHT22;4504;48.810;9.172;2023-04-22T04:46:49;11.40;99.90
8939;DHT22;4504;48.810;9.172;2023-04-22T04:49:17;11.50;99.90
8939;DHT22;4504;48.810;9.172;2023-04-22T04:51:51;11.50;99.90
8939;DHT22;4504;48.810;9.172;2023-04-22T04:54:18;11.50;99.90
8939;DHT22;4504;48.810;9.172;2023-04-22T04:56:45;11.50;99.90
8939;DHT22;4504;48.810;9.172;2023-04-22T04:59:13;11.50;99.90
8939;DHT22;4504;48.810;9.172;2023-04-22T05:01:41;11.50;99.90
8939;DHT22;4504;48.810;9.172;2023-04-22T05:04:12;11.40;99.90
8939;DHT22;4504;48.810;9.172;2023-04-22T05:06:41;11.40;99.90
8939;DHT22;4504;48.810;9.172;2023-04-22T05:09:08;11.30;99.90
8939;DHT22;4504;48.810;9.172;2023-04-22T05:11:35;11.30;99.90
8939;DHT22;4504;48.810;9.172;2023-04-22T05:14:10;11.20;99.90
8939;DHT22;4504;48.810;9.172;2023-04-22T05:16:40;11.30;99.90
8939;DHT22;4504;48.810;9.172;2023-04-22T05:19:08;11.30;99.90
8939;DHT22;4504;48.810;9.172;2023-04-22T05:21:36;11.30;99.90
8939;DHT22;4504;48.810;9.172;2023-04-22T05:24:04;11.40;99.90
8939;DHT22;4504;48.810;9.172;2023-04-22T05:26:31;11.40;99.90
8939;DHT22;4504;48.810;9.172;2023-04-22T05:28:59;11.40;99.90
8939;DHT22;4504;48.810;9.172;2023-04-22T05:31:26;11.40;99.90
8939;DHT22;4504;48.810;9.172;2023-04-22T05:33:53;11.50;99.90
8939;DHT22;4504;48.810;9.172;2023-04-22T05:36:21;11.40;99.90
8939;DHT22;4504;48.810;9.172;2023-04-22T05:38:50;11.40;99.90
8939;DHT22;4504;48.810;9.172;2023-04-22T05:41:17;11.30;99.90
8939;DHT22;4504;48.810;9.172;2023-04-22T05:43:44;11.30;99.90
8939;DHT22;4504;48.810;9.172;2023-04-22T05:46:15;11.30;99.90
8939;DHT22;4504;48.810;9.172;2023-04-22T05:48:44;11.30;99.90
8939;DHT22;4504;48.810;9.172;2023-04-22T05:51:31;11.30;99.90
8939;DHT22;4504;48.810;9.172;2023-04-22T05:53:59;11.30;99.90
8939;DHT22;4504;48.810;9.172;2023-04-22T05:56:27;11.30;99.90
8939;DHT22;4504;48.810;9.172;2023-04-22T05:58:54;11.30;99.90
8939;DHT22;4504;48.810;9.172;2023-04-22T06:01:23;11.30;99.90
8939;DHT22;4504;48.810;9.172;2023-04-22T06:04:00;11.40;99.90
8939;DHT22;4504;48.810;9.172;2023-04-22T06:06:29;11.40;99.90
8939;DHT22;4504;48.810;9.172;2023-04-22T06:08:56;11.40;99.90
8939;DHT22;4504;48.810;9.172;2023-04-22T06:11:25;11.60;99.90
8939;DHT22;4504;48.810;9.172;2023-04-22T06:13:52;11.70;99.90
8939;DHT22;4504;48.810;9.172;2023-04-22T06:16:20;11.80;99.90
8939;DHT22;4504;48.810;9.172;2023-04-22T06:18:48;11.90;99.90
8939;DHT22;4504;48.810;9.172;2023-04-22T06:21:15;12.10;99.90
8939;DHT22;4504;48.810;9.172;2023-04-22T06:23:42;12.20;99.90
8939;DHT22;4504;48.810;9.172;2023-04-22T06:26:09;12.30;99.90
8939;DHT22;4504;48.810;9.172;2023-04-22T06:28:38;12.40;99.90
8939;DHT22;4504;48.810;9.172;2023-04-22T06:31:10;12.40;99.90
8939;DHT22;4504;48.810;9.172;2023-04-22T06:33:37;12.50;99.90
8939;DHT22;4504;48.810;9.172;2023-04-22T06:36:04;12.60;99.90
8939;DHT22;4504;48.810;9.172;2023-04-22T06:38:33;12.70;99.90
8939;DHT22;4504;48.810;9.172;2023-04-22T06:41:29;12.70;99.90
8939;DHT22;4504;48.810;9.172;2023-04-22T06:44:02;12.70;99.90
8939;DHT22;4504;48.810;9.172;2023-04-22T06:46:53;12.80;99.90
8939;DHT22;4504;48.810;9.172;2023-04-22T06:49:20;13.00;99.90
8939;DHT22;4504;48.810;9.172;2023-04-22T06:51:56;13.10;99.90
8939;DHT22;4504;48.810;9.172;2023-04-22T06:54:23;13.20;99.90
8939;DHT22;4504;48.810;9.172;2023-04-22T06:56:50;13.30;99.90
8939;DHT22;4504;48.810;9.172;2023-04-22T06:59:18;13.40;99.90
8939;DHT22;4504;48.810;9.172;2023-04-22T07:01:46;13.40;99.90
8939;DHT22;4504;48.810;9.172;2023-04-22T07:04:13;13.40;99.90
8939;DHT22;4504;48.810;9.172;2023-04-22T07:06:41;13.60;99.90
8939;DHT22;4504;48.810;9.172;2023-04-22T07:09:08;13.60;99.90
8939;DHT22;4504;48.810;9.172;2023-04-22T07:11:36;13.60;99.90
8939;DHT22;4504;48.810;9.172;2023-04-22T07:14:25;13.70;99.90
8939;DHT22;4504;48.810;9.172;2023-04-22T07:16:52;13.80;99.90
8939;DHT22;4504;48.810;9.172;2023-04-22T07:19:20;13.90;99.90
8939;DHT22;4504;48.810;9.172;2023-04-22T07:21:47;13.90;99.90
8939;DHT22;4504;48.810;9.172;2023-04-22T07:24:14;14.00;99.90
8939;DHT22;4504;48.810;9.172;2023-04-22T07:26:42;14.00;99.90
8939;DHT22;4504;48.810;9.172;2023-04-22T07:29:09;14.10;99.90
8939;DHT22;4504;48.810;9.172;2023-04-22T07:31:38;14.10;99.90
8939;DHT22;4504;48.810;9.172;2023-04-22T07:34:05;14.00;99.90
8939;DHT22;4504;48.810;9.172;2023-04-22T07:36:35;14.20;99.90
8939;DHT22;4504;48.810;9.172;2023-04-22T07:39:02;14.30;99.90
8939;DHT22;4504;48.810;9.172;2023-04-22T07:41:29;14.50;99.90
8939;DHT22;4504;48.810;9.172;2023-04-22T07:43:56;14.50;99.90
8939;DHT22;4504;48.810;9.172;2023-04-22T07:46:23;14.60;99.90
8939;DHT22;4504;48.810;9.172;2023-04-22T07:48:52;14.80;99.90
8939;DHT22;4504;48.810;9.172;2023-04-22T07:51:19;14.90;99.90
8939;DHT22;4504;48.810;9.172;2023-04-22T07:53:46;15.00;99.90
8939;DHT22;4504;48.810;9.172;2023-04-22T07:56:12;15.20;99.90
8939;DHT22;4504;48.810;9.172;2023-04-22T07:58:39;15.00;99.90
8939;DHT22;4504;48.810;9.172;2023-04-22T08:01:06;15.10;99.90
8939;DHT22;4504;48.810;9.172;2023-04-22T08:03:33;15.20;99.90
8939;DHT22;4504;48.810;9.172;2023-04-22T08:06:02;15.20;99.90
8939;DHT22;4504;48.810;9.172;2023-04-22T08:08:29;15.40;99.90
8939;DHT22;4504;48.810;9.172;2023-04-22T08:10:55;15.30;99.90
8939;DHT22;4504;48.810;9.172;2023-04-22T08:13:22;15.40;99.90
8939;DHT22;4504;48.810;9.172;2023-04-22T08:15:50;15.50;99.90
8939;DHT22;4504;48.810;9.172;2023-04-22T08:18:17;15.50;99.90
8939;DHT22;4504;48.810;9.172;2023-04-22T08:20:45;15.50;99.90
8939;DHT22;4504;48.810;9.172;2023-04-22T08:23:13;15.60;99.90
8939;DHT22;4504;48.810;9.172;2023-04-22T08:25:40;15.40;99.90
8939;DHT22;4504;48.810;9.172;2023-04-22T08:28:07;15.40;99.90
8939;DHT22;4504;48.810;9.172;2023-04-22T08:30:35;15.40;99.90
8939;DHT22;4504;48.810;9.172;2023-04-22T08:33:02;15.30;99.90
8939;DHT22;4504;48.810;9.172;2023-04-22T08:35:29;15.30;99.90
8939;DHT22;4504;48.810;9.172;2023-04-22T08:37:56;15.30;99.90
8939;DHT22;4504;48.810;9.172;2023-04-22T08:40:25;15.30;99.90
8939;DHT22;4504;48.810;9.172;2023-04-22T08:42:53;15.50;99.90
8939;DHT22;4504;48.810;9.172;2023-04-22T08:45:21;15.50;99.90
8939;DHT22;4504;48.810;9.172;2023-04-22T08:47:48;15.70;99.90
8939;DHT22;4504;48.810;9.172;2023-04-22T08:50:15;15.90;99.90
8939;DHT22;4504;48.810;9.172;2023-04-22T08:52:42;15.90;99.90
8939;DHT22;4504;48.810;9.172;2023-04-22T08:55:09;16.00;99.90
8939;DHT22;4504;48.810;9.172;2023-04-22T08:57:38;16.10;99.90
8939;DHT22;4504;48.810;9.172;2023-04-22T09:00:06;16.20;99.90
8939;DHT22;4504;48.810;9.172;2023-04-22T09:02:36;16.30;99.90
8939;DHT22;4504;48.810;9.172;2023-04-22T09:05:05;16.40;99.90
8939;DHT22;4504;48.810;9.172;2023-04-22T09:07:33;16.50;99.90
8939;DHT22;4504;48.810;9.172;2023-04-22T09:10:01;16.60;99.90
8939;DHT22;4504;48.810;9.172;2023-04-22T09:12:28;16.70;99.90
8939;DHT22;4504;48.810;9.172;2023-04-22T09:14:57;16.90;99.90
8939;DHT22;4504;48.810;9.172;2023-04-22T09:17:30;17.00;99.90
8939;DHT22;4504;48.810;9.172;2023-04-22T09:19:58;17.20;99.90
8939;DHT22;4504;48.810;9.172;2023-04-22T09:22:26;17.40;99.90
8939;DHT22;4504;48.810;9.172;2023-04-22T09:24:53;17.60;99.90
8939;DHT22;4504;48.810;9.172;2023-04-22T09:27:23;17.70;99.90
8939;DHT22;4504;48.810;9.172;2023-04-22T09:29:51;17.80;98.70
8939;DHT22;4504;48.810;9.172;2023-04-22T09:32:19;17.90;99.00
8939;DHT22;4504;48.810;9.172;2023-04-22T09:34:50;18.00;98.90
8939;DHT22;4504;48.810;9.172;2023-04-22T09:37:18;18.10;98.70
8939;DHT22;4504;48.810;9.172;2023-04-22T09:39:48;18.20;98.50
8939;DHT22;4504;48.810;9.172;2023-04-22T09:42:16;18.40;98.60
8939;DHT22;4504;48.810;9.172;2023-04-22T09:44:46;18.40;98.10
8939;DHT22;4504;48.810;9.172;2023-04-22T09:47:14;18.50;97.60
8939;DHT22;4504;48.810;9.172;2023-04-22T09:49:46;18.60;97.90
8939;DHT22;4504;48.810;9.172;2023-04-22T09:52:21;18.60;96.80
8939;DHT22;4504;48.810;9.172;2023-04-22T09:54:51;18.60;97.60
8939;DHT22;4504;48.810;9.172;2023-04-22T09:57:19;18.80;97.20
8939;DHT22;4504;48.810;9.172;2023-04-22T09:59:49;19.10;96.70
8939;DHT22;4504;48.810;9.172;2023-04-22T10:02:16;19.30;96.40
8939;DHT22;4504;48.810;9.172;2023-04-22T10:04:43;19.50;95.70
8939;DHT22;4504;48.810;9.172;2023-04-22T10:07:13;19.60;95.80
8939;DHT22;4504;48.810;9.172;2023-04-22T10:09:40;19.70;95.50
8939;DHT22;4504;48.810;9.172;2023-04-22T10:12:07;19.70;94.50
8939;DHT22;4504;48.810;9.172;2023-04-22T10:14:34;19.90;94.20
8939;DHT22;4504;48.810;9.172;2023-04-22T10:17:02;20.00;92.70
8939;DHT22;4504;48.810;9.172;2023-04-22T10:19:30;20.10;93.10
8939;DHT22;4504;48.810;9.172;2023-04-22T10:22:01;20.20;92.60
8939;DHT22;4504;48.810;9.172;2023-04-22T10:24:35;20.50;90.60
8939;DHT22;4504;48.810;9.172;2023-04-22T10:27:03;20.50;91.30
8939;DHT22;4504;48.810;9.172;2023-04-22T10:29:37;20.90;86.70
8939;DHT22;4504;48.810;9.172;2023-04-22T10:32:05;20.70;82.60
8939;DHT22;4504;48.810;9.172;2023-04-22T10:34:48;20.70;87.40
8939;DHT22;4504;48.810;9.172;2023-04-22T10:37:18;20.70;81.90
8939;DHT22;4504;48.810;9.172;2023-04-22T10:40:06;20.90;79.80
8939;DHT22;4504;48.810;9.172;2023-04-22T10:42:34;21.20;82.80
8939;DHT22;4504;48.810;9.172;2023-04-22T10:45:02;21.70;79.90
8939;DHT22;4504;48.810;9.172;2023-04-22T10:47:31;21.90;76.60
8939;DHT22;4504;48.810;9.172;2023-04-22T10:50:12;22.20;77.70
8939;DHT22;4504;48.810;9.172;2023-04-22T10:52:41;22.60;77.60
8939;DHT22;4504;48.810;9.172;2023-04-22T10:55:09;22.80;76.60
8939;DHT22;4504;48.810;9.172;2023-04-22T10:57:39;22.90;77.50
8939;DHT22;4504;48.810;9.172;2023-04-22T11:03:13;24.20;72.50
8939;DHT22;4504;48.810;9.172;2023-04-22T11:05:41;24.20;70.20
8939;DHT22;4504;48.810;9.172;2023-04-22T11:08:12;24.60;69.00
8939;DHT22;4504;48.810;9.172;2023-04-22T11:10:45;24.80;63.20
8939;DHT22;4504;48.810;9.172;2023-04-22T11:13:13;24.80;61.30
8939;DHT22;4504;48.810;9.172;2023-04-22T11:15:42;24.90;58.00
8939;DHT22;4504;48.810;9.172;2023-04-22T11:18:16;24.80;58.30
8939;DHT22;4504;48.810;9.172;2023-04-22T11:20:43;24.70;55.10
8939;DHT22;4504;48.810;9.172;2023-04-22T11:23:10;24.80;54.40
8939;DHT22;4504;48.810;9.172;2023-04-22T11:25:37;24.80;51.80
8939;DHT22;4504;48.810;9.172;2023-04-22T11:28:05;24.70;54.00
8939;DHT22;4504;48.810;9.172;2023-04-22T11:30:32;24.60;48.40
8939;DHT22;4504;48.810;9.172;2023-04-22T11:32:59;24.60;47.50
8939;DHT22;4504;48.810;9.172;2023-04-22T11:35:28;24.30;48.30
8939;DHT22;4504;48.810;9.172;2023-04-22T11:37:58;24.70;48.20
8939;DHT22;4504;48.810;9.172;2023-04-22T11:40:28;24.50;48.20
8939;DHT22;4504;48.810;9.172;2023-04-22T11:42:56;24.40;48.80
8939;DHT22;4504;48.810;9.172;2023-04-22T11:45:25;24.30;48.10
8939;DHT22;4504;48.810;9.172;2023-04-22T11:47:52;23.80;49.40
8939;DHT22;4504;48.810;9.172;2023-04-22T11:50:22;23.30;48.50
8939;DHT22;4504;48.810;9.172;2023-04-22T11:52:51;23.00;50.20
8939;DHT22;4504;48.810;9.172;2023-04-22T11:55:21;22.80;50.60
8939;DHT22;4504;48.810;9.172;2023-04-22T11:57:53;23.20;49.90
8939;DHT22;4504;48.810;9.172;2023-04-22T12:00:22;23.00;48.80
8939;DHT22;4504;48.810;9.172;2023-04-22T12:02:58;22.70;50.20
8939;DHT22;4504;48.810;9.172;2023-04-22T12:05:33;22.70;50.30
8939;DHT22;4504;48.810;9.172;2023-04-22T12:08:02;22.60;50.70
8939;DHT22;4504;48.810;9.172;2023-04-22T12:10:29;22.60;50.70
8939;DHT22;4504;48.810;9.172;2023-04-22T12:12:56;22.40;51.50
8939;DHT22;4504;48.810;9.172;2023-04-22T12:15:23;22.40;51.40
8939;DHT22;4504;48.810;9.172;2023-04-22T12:17:50;22.70;52.40
8939;DHT22;4504;48.810;9.172;2023-04-22T12:20:19;22.80;52.40
8939;DHT22;4504;48.810;9.172;2023-04-22T12:22:46;22.60;52.10
8939;DHT22;4504;48.810;9.172;2023-04-22T12:25:17;22.40;52.80
8939;DHT22;4504;48.810;9.172;2023-04-22T12:27:44;22.00;53.20
8939;DHT22;4504;48.810;9.172;2023-04-22T12:30:13;21.90;53.60
8939;DHT22;4504;48.810;9.172;2023-04-22T12:32:41;22.00;53.90
8939;DHT22;4504;48.810;9.172;2023-04-22T12:35:08;22.00;54.30
8939;DHT22;4504;48.810;9.172;2023-04-22T12:37:36;22.50;54.90
8939;DHT22;4504;48.810;9.172;2023-04-22T12:40:04;23.10;54.50
8939;DHT22;4504;48.810;9.172;2023-04-22T12:42:31;23.50;53.00
8939;DHT22;4504;48.810;9.172;2023-04-22T12:44:58;23.20;51.70
8939;DHT22;4504;48.810;9.172;2023-04-22T12:47:25;22.80;51.40
8939;DHT22;4504;48.810;9.172;2023-04-22T12:49:52;22.50;51.90
8939;DHT22;4504;48.810;9.172;2023-04-22T12:52:19;22.30;51.40
8939;DHT22;4504;48.810;9.172;2023-04-22T12:54:48;22.20;52.10
8939;DHT22;4504;48.810;9.172;2023-04-22T12:57:15;22.40;51.50
8939;DHT22;4504;48.810;9.172;2023-04-22T12:59:42;22.30;52.50
8939;DHT22;4504;48.810;9.172;2023-04-22T13:02:11;22.20;51.60
8939;DHT22;4504;48.810;9.172;2023-04-22T13:04:38;22.10;51.40
8939;DHT22;4504;48.810;9.172;2023-04-22T13:07:05;22.20;51.80
8939;DHT22;4504;48.810;9.172;2023-04-22T13:09:32;22.30;52.00
8939;DHT22;4504;48.810;9.172;2023-04-22T13:12:01;22.60;52.20
8939;DHT22;4504;48.810;9.172;2023-04-22T13:14:28;22.70;50.80
8939;DHT22;4504;48.810;9.172;2023-04-22T13:16:55;22.70;50.50
8939;DHT22;4504;48.810;9.172;2023-04-22T13:19:22;22.60;50.30
8939;DHT22;4504;48.810;9.172;2023-04-22T13:21:52;22.20;51.20
8939;DHT22;4504;48.810;9.172;2023-04-22T13:24:19;22.00;51.30
8939;DHT22;4504;48.810;9.172;2023-04-22T13:26:46;21.80;52.70
8939;DHT22;4504;48.810;9.172;2023-04-22T13:29:15;21.50;52.20
8939;DHT22;4504;48.810;9.172;2023-04-22T13:31:42;21.30;53.20
8939;DHT22;4504;48.810;9.172;2023-04-22T13:34:09;21.20;53.50
8939;DHT22;4504;48.810;9.172;2023-04-22T13:36:36;21.30;53.90
8939;DHT22;4504;48.810;9.172;2023-04-22T13:39:03;21.30;54.80
8939;DHT22;4504;48.810;9.172;2023-04-22T13:41:30;21.20;54.20
8939;DHT22;4504;48.810;9.172;2023-04-22T13:43:57;21.10;60.00
8939;DHT22;4504;48.810;9.172;2023-04-22T13:46:26;21.00;63.90
8939;DHT22;4504;48.810;9.172;2023-04-22T13:48:53;20.90;66.20
8939;DHT22;4504;48.810;9.172;2023-04-22T13:51:21;20.80;67.30
8939;DHT22;4504;48.810;9.172;2023-04-22T13:53:48;20.60;67.40
8939;DHT22;4504;48.810;9.172;2023-04-22T13:56:15;20.60;67.40
8939;DHT22;4504;48.810;9.172;2023-04-22T13:58:42;20.60;67.40
8939;DHT22;4504;48.810;9.172;2023-04-22T14:01:09;20.60;67.40
8939;DHT22;4504;48.810;9.172;2023-04-22T14:03:37;20.60;67.30
8939;DHT22;4504;48.810;9.172;2023-04-22T14:06:05;20.70;68.00
8939;DHT22;4504;48.810;9.172;2023-04-22T14:08:32;20.70;67.70
8939;DHT22;4504;48.810;9.172;2023-04-22T14:10:59;20.60;65.60
8939;DHT22;4504;48.810;9.172;2023-04-22T14:13:28;20.60;66.00
8939;DHT22;4504;48.810;9.172;2023-04-22T14:15:55;20.70;66.60
8939;DHT22;4504;48.810;9.172;2023-04-22T14:18:22;20.70;66.40
8939;DHT22;4504;48.810;9.172;2023-04-22T14:20:51;20.60;66.10
8939;DHT22;4504;48.810;9.172;2023-04-22T14:23:18;20.70;66.90
8939;DHT22;4504;48.810;9.172;2023-04-22T14:25:47;20.70;66.20
8939;DHT22;4504;48.810;9.172;2023-04-22T14:28:15;20.80;64.00
8939;DHT22;4504;48.810;9.172;2023-04-22T14:30:42;20.80;63.40
8939;DHT22;4504;48.810;9.172;2023-04-22T14:33:09;20.80;59.60
8939;DHT22;4504;48.810;9.172;2023-04-22T14:35:37;20.60;58.70
8939;DHT22;4504;48.810;9.172;2023-04-22T14:38:07;20.60;59.00
8939;DHT22;4504;48.810;9.172;2023-04-22T14:40:34;20.50;59.10
8939;DHT22;4504;48.810;9.172;2023-04-22T14:43:04;20.60;59.50
8939;DHT22;4504;48.810;9.172;2023-04-22T14:45:31;20.60;59.40
8939;DHT22;4504;48.810;9.172;2023-04-22T14:47:58;20.60;59.10
8939;DHT22;4504;48.810;9.172;2023-04-22T14:50:26;20.70;58.80
8939;DHT22;4504;48.810;9.172;2023-04-22T14:52:54;20.70;58.80
8939;DHT22;4504;48.810;9.172;2023-04-22T14:55:23;20.70;59.00
8939;DHT22;4504;48.810;9.172;2023-04-22T14:57:53;21.20;58.80
8939;DHT22;4504;48.810;9.172;2023-04-22T15:00:21;21.60;58.00
8939;DHT22;4504;48.810;9.172;2023-04-22T15:02:48;22.20;57.50
8939;DHT22;4504;48.810;9.172;2023-04-22T15:05:15;22.40;56.80
8939;DHT22;4504;48.810;9.172;2023-04-22T15:07:42;22.60;57.30
8939;DHT22;4504;48.810;9.172;2023-04-22T15:10:10;22.60;56.60
8939;DHT22;4504;48.810;9.172;2023-04-22T15:12:38;22.00;57.00
8939;DHT22;4504;48.810;9.172;2023-04-22T15:15:06;21.40;57.60
8939;DHT22;4504;48.810;9.172;2023-04-22T15:17:33;21.00;58.40
8939;DHT22;4504;48.810;9.172;2023-04-22T15:20:00;20.90;58.50
8939;DHT22;4504;48.810;9.172;2023-04-22T15:22:29;20.70;59.50
8939;DHT22;4504;48.810;9.172;2023-04-22T15:24:56;20.60;59.00
8939;DHT22;4504;48.810;9.172;2023-04-22T15:27:23;20.80;59.70
8939;DHT22;4504;48.810;9.172;2023-04-22T15:29:52;20.60;59.70
8939;DHT22;4504;48.810;9.172;2023-04-22T15:32:19;20.80;59.90
8939;DHT22;4504;48.810;9.172;2023-04-22T15:34:46;20.80;59.50
8939;DHT22;4504;48.810;9.172;2023-04-22T15:37:14;20.80;59.70
8939;DHT22;4504;48.810;9.172;2023-04-22T15:39:42;20.60;59.50
8939;DHT22;4504;48.810;9.172;2023-04-22T15:42:09;20.50;59.60
8939;DHT22;4504;48.810;9.172;2023-04-22T15:44:36;20.60;60.10
8939;DHT22;4504;48.810;9.172;2023-04-22T15:47:05;20.70;60.80
8939;DHT22;4504;48.810;9.172;2023-04-22T15:49:35;20.60;60.40
8939;DHT22;4504;48.810;9.172;2023-04-22T15:52:02;20.70;60.30
8939;DHT22;4504;48.810;9.172;2023-04-22T15:54:29;20.70;60.90
8939;DHT22;4504;48.810;9.172;2023-04-22T15:56:56;20.60;60.00
8939;DHT22;4504;48.810;9.172;2023-04-22T15:59:23;20.50;60.30
8939;DHT22;4504;48.810;9.172;2023-04-22T16:01:50;20.50;60.60
8939;DHT22;4504;48.810;9.172;2023-04-22T16:04:19;20.50;61.00
8939;DHT22;4504;48.810;9.172;2023-04-22T16:06:46;20.60;61.20
8939;DHT22;4504;48.810;9.172;2023-04-22T16:09:13;20.60;61.50
8939;DHT22;4504;48.810;9.172;2023-04-22T16:11:41;20.50;61.70
8939;DHT22;4504;48.810;9.172;2023-04-22T16:14:08;20.50;61.70